Time;durP1;ratioP1;P1;durP2;ratioP2;P2;SDS_P1;SDS_P2;PMS_P1;PMS_P2;Temp;Humidity;BMP_temperature;BMP_pressure;BME280_temperature;BME280_humidity;BME280_pressure;Samples;Min_cycle;Max_cycle;Signal;HPM_P1;HPM_P2
2023/09/16 00:01:39;;;;;;;13.77;9.52;;;;;;;;;;6301705;28;20082;-65
2023/09/16 00:04:42;;;;;;;13.30;9.32;;;;;;;;;;6308063;28;20066;-64
2023/09/16 00:07:44;;;;;;;13.50;8.80;;;;;;;;;;6300553;28;20055;-64
2023/09/16 00:10:47;;;;;;;13.48;9.23;;;;;;;;;;6310004;28;20135;-65
2023/09/16 00:13:49;;;;;;;12.40;9.75;;;;;;;;;;6307078;28;20113;-65
2023/09/16 00:16:52;;;;;;;15.13;10.07;;;;;;;;;;6305474;28;20051;-65
2023/09/16 00:19:55;;;;;;;12.60;11.27;;;;;;;;;;6304958;28;20153;-64
2023/09/16 00:22:57;;;;;;;13.20;9.75;;;;;;;;;;6294284;28;20044;-64
2023/09/16 00:26:00;;;;;;;12.80;11.50;;;;;;;;;;6304837;28;20542;-64
2023/09/16 00:29:02;;;;;;;13.13;9.77;;;;;;;;;;6289468;28;20052;-64
2023/09/16 00:32:04;;;;;;;15.68;10.40;;;;;;;;;;6302208;28;20097;-65
2023/09/16 00:35:08;;;;;;;16.85;10.70;;;;;;;;;;6304990;28;20069;-64
2023/09/16 00:38:10;;;;;;;16.10;10.23;;;;;;;;;;6290987;28;20044;-64
2023/09/16 00:41:12;;;;;;;14.98;10.40;;;;;;;;;;6295696;28;20048;-64
2023/09/16 00:44:14;;;;;;;20.85;14.90;;;;;;;;;;6294208;28;20608;-64
2023/09/16 00:47:17;;;;;;;15.07;10.60;;;;;;;;;;6298524;28;20048;-64
2023/09/16 00:50:19;;;;;;;14.45;11.10;;;;;;;;;;6293511;28;20105;-64
2023/09/16 00:53:22;;;;;;;12.57;11.27;;;;;;;;;;6284949;28;20122;-64
2023/09/16 00:56:27;;;;;;;15.18;9.55;;;;;;;;;;6303275;28;20152;-64
2023/09/16 00:59:32;;;;;;;12.90;9.50;;;;;;;;;;6283473;28;20715;-64
2023/09/16 01:02:35;;;;;;;10.50;9.07;;;;;;;;;;6289326;28;20040;-64
2023/09/16 01:05:37;;;;;;;15.77;10.95;;;;;;;;;;6294785;28;20048;-65
2023/09/16 01:08:39;;;;;;;12.85;9.82;;;;;;;;;;6289211;28;20060;-64
2023/09/16 01:11:42;;;;;;;13.93;10.32;;;;;;;;;;6271086;28;20052;-64
2023/09/16 01:14:44;;;;;;;13.35;9.32;;;;;;;;;;6288103;28;20041;-64
2023/09/16 01:18:01;;;;;;;12.50;8.93;;;;;;;;;;6304625;28;20348;-64
2023/09/16 01:21:06;;;;;;;11.52;9.48;;;;;;;;;;6291458;28;20059;-64
2023/09/16 01:24:15;;;;;;;12.15;9.75;;;;;;;;;;6293492;28;20056;-65
2023/09/16 01:27:18;;;;;;;16.02;10.07;;;;;;;;;;6290498;28;20071;-64
2023/09/16 01:30:20;;;;;;;13.13;9.07;;;;;;;;;;6301008;28;20832;-64
2023/09/16 01:33:31;;;;;;;12.95;8.73;;;;;;;;;;6285972;28;20518;-64
2023/09/16 01:36:35;;;;;;;12.05;8.55;;;;;;;;;;6305498;28;20598;-64
2023/09/16 01:39:39;;;;;;;16.02;10.57;;;;;;;;;;6291528;28;20044;-64
2023/09/16 01:42:42;;;;;;;15.35;9.43;;;;;;;;;;6289978;28;20044;-65
2023/09/16 01:45:45;;;;;;;14.45;10.65;;;;;;;;;;6291246;28;20051;-64
2023/09/16 01:48:47;;;;;;;17.02;10.80;;;;;;;;;;6298322;28;20056;-64
2023/09/16 01:51:49;;;;;;;15.35;9.40;;;;;;;;;;6285839;28;20047;-64
2023/09/16 01:54:51;;;;;;;13.20;11.68;;;;;;;;;;6311895;28;20125;-64
2023/09/16 01:57:53;;;;;;;12.80;10.48;;;;;;;;;;6301404;28;20053;-65
2023/09/16 02:00:55;;;;;;;15.45;10.95;;;;;;;;;;6289656;28;20044;-64
2023/09/16 02:03:57;;;;;;;13.32;9.43;;;;;;;;;;6293252;28;20132;-64
2023/09/16 02:06:59;;;;;;;10.90;9.30;;;;;;;;;;6308122;28;20067;-65
2023/09/16 02:10:03;;;;;;;14.55;10.73;;;;;;;;;;6287977;28;20514;-64
2023/09/16 02:13:05;;;;;;;16.25;9.32;;;;;;;;;;6290960;28;20053;-65
2023/09/16 02:16:10;;;;;;;12.55;9.05;;;;;;;;;;6287123;28;20051;-65
2023/09/16 02:19:13;;;;;;;11.43;9.48;;;;;;;;;;6286000;28;20048;-66
2023/09/16 02:22:17;;;;;;;14.75;9.88;;;;;;;;;;6303874;28;20056;-64
2023/09/16 02:25:19;;;;;;;12.50;10.35;;;;;;;;;;6307396;28;20091;-65
2023/09/16 02:28:21;;;;;;;14.25;9.98;;;;;;;;;;6282608;28;20051;-64
2023/09/16 02:31:28;;;;;;;16.73;8.98;;;;;;;;;;6304644;28;20077;-64
2023/09/16 02:34:32;;;;;;;12.85;9.35;;;;;;;;;;6293606;28;20151;-64
2023/09/16 02:37:34;;;;;;;14.38;9.43;;;;;;;;;;6284638;28;20117;-64
2023/09/16 02:40:42;;;;;;;11.88;9.77;;;;;;;;;;6301110;28;20049;-65
2023/09/16 02:43:47;;;;;;;;;;;;;;;;;;6284562;28;20542;-65
2023/09/16 02:46:50;;;;;;;11.90;8.95;;;;;;;;;;6285619;28;19949;-65
2023/09/16 02:49:53;;;;;;;12.70;9.73;;;;;;;;;;6286292;28;20059;-64
2023/09/16 02:52:55;;;;;;;13.18;10.25;;;;;;;;;;6302087;28;20066;-64
2023/09/16 02:55:57;;;;;;;12.15;9.40;;;;;;;;;;6296838;28;20051;-64
2023/09/16 02:59:00;;;;;;;11.90;9.68;;;;;;;;;;6289188;28;20581;-64
2023/09/16 03:02:03;;;;;;;13.63;9.38;;;;;;;;;;6267624;28;20048;-64
2023/09/16 03:05:05;;;;;;;12.70;9.57;;;;;;;;;;6306444;28;20047;-64
2023/09/16 03:08:07;;;;;;;13.80;9.48;;;;;;;;;;6303669;28;20052;-65
2023/09/16 03:11:11;;;;;;;13.00;10.82;;;;;;;;;;6290281;28;20040;-65
2023/09/16 03:14:13;;;;;;;16.00;9.15;;;;;;;;;;6282071;28;20052;-65
2023/09/16 03:17:16;;;;;;;14.13;10.77;;;;;;;;;;6289028;28;20175;-64
2023/09/16 03:20:18;;;;;;;14.02;9.48;;;;;;;;;;6310684;28;20052;-64
2023/09/16 03:23:21;;;;;;;13.50;10.25;;;;;;;;;;6287345;28;20051;-64
2023/09/16 03:26:23;;;;;;;13.80;11.77;;;;;;;;;;6278890;28;20183;-64
2023/09/16 03:29:26;;;;;;;14.85;10.00;;;;;;;;;;6294242;28;20045;-65
2023/09/16 03:32:29;;;;;;;14.05;10.63;;;;;;;;;;6289673;28;20056;-65
2023/09/16 03:35:34;;;;;;;12.95;10.70;;;;;;;;;;6288926;28;20112;-65
2023/09/16 03:38:45;;;;;;;14.93;11.45;;;;;;;;;;6283296;28;20044;-65
2023/09/16 03:41:48;;;;;;;16.00;11.45;;;;;;;;;;6287499;28;20040;-65
2023/09/16 03:44:51;;;;;;;15.60;10.02;;;;;;;;;;6291052;28;20129;-64
2023/09/16 03:47:53;;;;;;;17.33;11.25;;;;;;;;;;6285999;28;20055;-65
2023/09/16 03:50:55;;;;;;;14.55;11.13;;;;;;;;;;6286745;28;20048;-65
2023/09/16 03:53:57;;;;;;;13.15;10.55;;;;;;;;;;6287888;28;20048;-64
2023/09/16 03:57:00;;;;;;;16.25;11.30;;;;;;;;;;6285103;28;20052;-64
2023/09/16 04:00:07;;;;;;;14.88;11.80;;;;;;;;;;6292209;28;20193;-64
2023/09/16 04:03:13;;;;;;;;;;;;;;;;;;6301264;28;20048;-64
2023/09/16 04:06:15;;;;;;;16.63;11.98;;;;;;;;;;6309054;28;20019;-65
2023/09/16 04:09:17;;;;;;;17.05;12.63;;;;;;;;;;6294727;28;20123;-64
2023/09/16 04:12:19;;;;;;;18.35;12.32;;;;;;;;;;6289713;28;20601;-63
2023/09/16 04:15:21;;;;;;;18.73;15.75;;;;;;;;;;6308191;28;20466;-63
2023/09/16 04:18:23;;;;;;;15.43;11.52;;;;;;;;;;6299347;28;20085;-63
2023/09/16 04:21:26;;;;;;;15.73;12.35;;;;;;;;;;6310733;28;20052;-63
2023/09/16 04:24:28;;;;;;;17.13;12.07;;;;;;;;;;6285818;28;20036;-63
2023/09/16 04:27:30;;;;;;;17.05;11.57;;;;;;;;;;6300249;28;20049;-63
2023/09/16 04:30:48;;;;;;;16.13;13.00;;;;;;;;;;6296023;28;20740;-63
2023/09/16 04:33:52;;;;;;;15.57;11.68;;;;;;;;;;6280845;28;20040;-63
2023/09/16 04:36:55;;;;;;;15.40;13.00;;;;;;;;;;6291787;28;20044;-62
2023/09/16 04:39:57;;;;;;;18.50;13.23;;;;;;;;;;6309878;28;20049;-62
2023/09/16 04:42:59;;;;;;;18.25;13.20;;;;;;;;;;6271938;28;20052;-62
2023/09/16 04:46:02;;;;;;;16.60;11.43;;;;;;;;;;6303288;28;20055;-62
2023/09/16 04:49:09;;;;;;;20.35;13.52;;;;;;;;;;6289101;28;20472;-63
2023/09/16 04:52:11;;;;;;;19.13;13.45;;;;;;;;;;6279014;28;20051;-62
2023/09/16 04:55:14;;;;;;;19.70;13.45;;;;;;;;;;6306735;28;20716;-62
2023/09/16 04:58:16;;;;;;;20.27;13.73;;;;;;;;;;6288674;28;20740;-62
2023/09/16 05:01:19;;;;;;;23.58;14.05;;;;;;;;;;6313597;28;20060;-62
2023/09/16 05:04:22;;;;;;;21.15;13.80;;;;;;;;;;6284715;28;20052;-62
2023/09/16 05:07:24;;;;;;;21.48;13.48;;;;;;;;;;6278119;28;20047;-62
2023/09/16 05:10:27;;;;;;;23.00;15.27;;;;;;;;;;6295604;28;20048;-62
2023/09/16 05:13:29;;;;;;;23.20;15.93;;;;;;;;;;6287133;28;20074;-63
2023/09/16 05:16:31;;;;;;;21.70;15.30;;;;;;;;;;6310583;28;20060;-63
2023/09/16 05:19:38;;;;;;;21.77;14.65;;;;;;;;;;6293015;28;20542;-64
2023/09/16 05:22:47;;;;;;;22.38;16.05;;;;;;;;;;6293898;28;20051;-63
2023/09/16 05:25:50;;;;;;;22.65;14.60;;;;;;;;;;6287828;28;20044;-62
2023/09/16 05:29:00;;;;;;;24.13;15.07;;;;;;;;;;6285749;28;20072;-63
2023/09/16 05:32:05;;;;;;;22.63;15.50;;;;;;;;;;6295150;28;20134;-64
2023/09/16 05:35:09;;;;;;;25.70;15.43;;;;;;;;;;6285960;28;20044;-63
2023/09/16 05:38:11;;;;;;;25.75;14.13;;;;;;;;;;6307698;28;20051;-63
2023/09/16 05:41:13;;;;;;;23.75;15.13;;;;;;;;;;6298174;28;20044;-63
2023/09/16 05:44:20;;;;;;;21.92;14.88;;;;;;;;;;6288289;28;20117;-64
2023/09/16 05:47:22;;;;;;;20.08;14.02;;;;;;;;;;6281899;28;20077;-66
2023/09/16 05:50:24;;;;;;;23.13;15.98;;;;;;;;;;6284204;28;20044;-64
2023/09/16 05:53:27;;;;;;;22.63;14.75;;;;;;;;;;6289804;28;20202;-64
2023/09/16 05:56:37;;;;;;;23.42;16.08;;;;;;;;;;6293916;28;20047;-64
2023/09/16 05:59:41;;;;;;;19.90;14.70;;;;;;;;;;6288667;28;20059;-64
2023/09/16 06:02:43;;;;;;;22.35;15.32;;;;;;;;;;6309557;28;20054;-65
2023/09/16 06:05:46;;;;;;;21.23;16.33;;;;;;;;;;6293779;28;20156;-63
2023/09/16 06:08:48;;;;;;;20.83;14.10;;;;;;;;;;6289119;28;20048;-63
2023/09/16 06:11:51;;;;;;;22.05;14.23;;;;;;;;;;6298248;28;20560;-64
2023/09/16 06:14:53;;;;;;;18.67;14.73;;;;;;;;;;6300898;28;20048;-63
2023/09/16 06:17:55;;;;;;;17.48;14.30;;;;;;;;;;6273491;28;20045;-63
2023/09/16 06:20:58;;;;;;;22.85;15.02;;;;;;;;;;6306203;28;20228;-64
2023/09/16 06:24:00;;;;;;;19.60;16.63;;;;;;;;;;6290753;28;20528;-64
2023/09/16 06:27:02;;;;;;;22.65;15.27;;;;;;;;;;6259165;28;20044;-63
2023/09/16 06:30:05;;;;;;;18.33;14.20;;;;;;;;;;6293221;28;20040;-63
2023/09/16 06:33:08;;;;;;;20.48;15.32;;;;;;;;;;6290139;28;20040;-63
2023/09/16 06:36:12;;;;;;;22.00;15.10;;;;;;;;;;6285360;28;20055;-64
2023/09/16 06:39:14;;;;;;;21.48;14.52;;;;;;;;;;6287159;28;20190;-63
2023/09/16 06:42:16;;;;;;;20.15;15.27;;;;;;;;;;6290272;28;20788;-63
2023/09/16 06:45:19;;;;;;;19.45;14.95;;;;;;;;;;6275119;28;20075;-64
2023/09/16 06:48:24;;;;;;;21.05;15.45;;;;;;;;;;6300559;28;20051;-64
2023/09/16 06:51:26;;;;;;;19.60;14.75;;;;;;;;;;6303336;28;20655;-64
2023/09/16 06:54:28;;;;;;;20.83;14.68;;;;;;;;;;6303135;28;20164;-64
2023/09/16 06:57:31;;;;;;;20.60;15.82;;;;;;;;;;6298936;28;20044;-64
2023/09/16 07:00:35;;;;;;;21.38;16.13;;;;;;;;;;6298159;28;20069;-64
2023/09/16 07:03:37;;;;;;;26.08;17.60;;;;;;;;;;6303004;28;20055;-64
2023/09/16 07:06:39;;;;;;;23.58;16.40;;;;;;;;;;6296959;28;20052;-65
2023/09/16 07:09:42;;;;;;;23.13;16.30;;;;;;;;;;6302953;28;20075;-65
2023/09/16 07:12:44;;;;;;;21.92;15.55;;;;;;;;;;6293986;28;20545;-64
2023/09/16 07:15:55;;;;;;;20.40;16.60;;;;;;;;;;6304155;28;20590;-64
2023/09/16 07:18:57;;;;;;;20.15;14.93;;;;;;;;;;6306418;28;20507;-65
2023/09/16 07:21:59;;;;;;;20.77;16.95;;;;;;;;;;6300428;28;20114;-65
2023/09/16 07:25:01;;;;;;;18.75;15.02;;;;;;;;;;6307131;28;20056;-64
2023/09/16 07:28:04;;;;;;;21.05;15.43;;;;;;;;;;6305717;28;20053;-64
2023/09/16 07:31:06;;;;;;;20.02;15.75;;;;;;;;;;6302178;28;20051;-63
2023/09/16 07:34:08;;;;;;;18.77;14.73;;;;;;;;;;6308493;28;20051;-63
2023/09/16 07:37:11;;;;;;;20.73;13.45;;;;;;;;;;6307570;28;20458;-64
2023/09/16 07:40:13;;;;;;;18.05;14.55;;;;;;;;;;6308310;28;20458;-64
2023/09/16 07:43:16;;;;;;;22.35;16.27;;;;;;;;;;6286232;28;20055;-64
2023/09/16 07:46:18;;;;;;;19.70;14.52;;;;;;;;;;6309937;28;20044;-64
2023/09/16 07:49:21;;;;;;;20.10;13.82;;;;;;;;;;6304089;28;20067;-65
2023/09/16 07:52:23;;;;;;;22.30;17.05;;;;;;;;;;6303758;28;20559;-66
2023/09/16 07:55:26;;;;;;;21.20;13.57;;;;;;;;;;6309912;28;20087;-66
2023/09/16 07:58:28;;;;;;;19.92;12.13;;;;;;;;;;6297795;28;20546;-65
2023/09/16 08:01:30;;;;;;;19.52;12.52;;;;;;;;;;6305390;28;20058;-65
2023/09/16 08:04:33;;;;;;;15.60;11.90;;;;;;;;;;6305852;28;20093;-65
2023/09/16 08:07:35;;;;;;;18.17;11.90;;;;;;;;;;6302880;28;20229;-65
2023/09/16 08:10:37;;;;;;;18.00;14.48;;;;;;;;;;6305947;28;20823;-65
2023/09/16 08:13:39;;;;;;;15.30;11.82;;;;;;;;;;6303236;28;20048;-64
2023/09/16 08:16:41;;;;;;;16.10;11.70;;;;;;;;;;6306271;28;20052;-65
2023/09/16 08:19:43;;;;;;;17.27;11.45;;;;;;;;;;6308047;28;20053;-64
2023/09/16 08:22:45;;;;;;;17.88;10.20;;;;;;;;;;6303732;28;20059;-65
2023/09/16 08:25:47;;;;;;;15.18;11.13;;;;;;;;;;6295224;28;20040;-65
2023/09/16 08:28:49;;;;;;;13.18;11.63;;;;;;;;;;6300822;28;20048;-64
2023/09/16 08:31:52;;;;;;;12.40;10.60;;;;;;;;;;6302068;28;20544;-64
2023/09/16 08:34:57;;;;;;;14.30;10.60;;;;;;;;;;6285490;28;20043;-64
2023/09/16 08:38:01;;;;;;;12.95;9.30;;;;;;;;;;6305384;28;20127;-64
2023/09/16 08:41:44;;;;;;;11.55;9.05;;;;;;;;;;6298749;28;20056;-65
2023/09/16 08:44:51;;;;;;;12.82;9.23;;;;;;;;;;6283335;28;20514;-64
2023/09/16 08:47:56;;;;;;;14.80;9.55;;;;;;;;;;6280496;28;20052;-65
2023/09/16 08:51:01;;;;;;;10.15;8.10;;;;;;;;;;6293699;28;20041;-64
2023/09/16 08:54:04;;;;;;;11.05;8.50;;;;;;;;;;6298869;28;20049;-65
2023/09/16 08:57:07;;;;;;;10.77;8.43;;;;;;;;;;6298613;28;20130;-64
2023/09/16 09:00:10;;;;;;;13.90;8.77;;;;;;;;;;6308900;28;20044;-65
2023/09/16 09:03:12;;;;;;;12.35;9.35;;;;;;;;;;6292118;28;20036;-66
2023/09/16 09:06:14;;;;;;;11.23;9.00;;;;;;;;;;6301197;28;20477;-65
2023/09/16 09:09:28;;;;;;;11.52;7.82;;;;;;;;;;6291112;28;20134;-66
2023/09/16 09:12:32;;;;;;;10.27;8.00;;;;;;;;;;6283695;28;20052;-65
2023/09/16 09:15:35;;;;;;;11.18;7.25;;;;;;;;;;6302999;28;20051;-65
2023/09/16 09:18:37;;;;;;;11.45;7.82;;;;;;;;;;6284770;28;20177;-65
2023/09/16 09:21:40;;;;;;;12.73;11.40;;;;;;;;;;6286290;28;20921;-65
2023/09/16 09:24:43;;;;;;;10.32;8.25;;;;;;;;;;6302495;28;20550;-65
2023/09/16 09:27:45;;;;;;;11.88;8.20;;;;;;;;;;6302075;28;20044;-66
2023/09/16 09:30:47;;;;;;;10.32;7.25;;;;;;;;;;6288930;28;20580;-65
2023/09/16 09:33:49;;;;;;;9.98;7.50;;;;;;;;;;6307484;28;20056;-65
2023/09/16 09:36:52;;;;;;;8.57;7.32;;;;;;;;;;6300440;28;20043;-65
2023/09/16 09:40:04;;;;;;;9.63;7.30;;;;;;;;;;6304171;28;20059;-65
2023/09/16 09:43:06;;;;;;;9.48;7.60;;;;;;;;;;6306856;28;20048;-65
2023/09/16 09:46:08;;;;;;;10.80;7.85;;;;;;;;;;6300269;28;20039;-65
2023/09/16 09:49:12;;;;;;;10.07;7.28;;;;;;;;;;6281930;28;20040;-65
2023/09/16 09:52:14;;;;;;;9.00;6.70;;;;;;;;;;6286088;28;20872;-65
2023/09/16 09:55:37;;;;;;;7.85;5.70;;;;;;;;;;6307621;28;20149;-65
2023/09/16 09:58:40;;;;;;;10.05;5.93;;;;;;;;;;6303781;28;20074;-64
2023/09/16 10:01:42;;;;;;;10.38;6.20;;;;;;;;;;6304615;28;20101;-65
2023/09/16 10:04:46;;;;;;;9.82;5.65;;;;;;;;;;6297707;28;20058;-65
2023/09/16 10:07:51;;;;;;;7.00;5.75;;;;;;;;;;6305007;28;20051;-66
2023/09/16 10:10:54;;;;;;;9.75;5.93;;;;;;;;;;6304819;28;20055;-64
2023/09/16 10:13:56;;;;;;;10.68;9.55;;;;;;;;;;6290119;28;20842;-65
2023/09/16 10:16:58;;;;;;;7.13;5.57;;;;;;;;;;6300558;28;20045;-67
2023/09/16 10:20:02;;;;;;;10.32;5.22;;;;;;;;;;6298021;28;20040;-65
2023/09/16 10:23:04;;;;;;;7.00;5.00;;;;;;;;;;6305121;28;20106;-65
2023/09/16 10:26:08;;;;;;;7.45;5.97;;;;;;;;;;6280672;28;20181;-65
2023/09/16 10:29:10;;;;;;;7.70;5.47;;;;;;;;;;6277683;28;20044;-65
2023/09/16 10:32:13;;;;;;;6.28;4.88;;;;;;;;;;6305605;28;20416;-65
2023/09/16 10:35:22;;;;;;;6.57;5.05;;;;;;;;;;6295496;28;20051;-65
2023/09/16 10:38:25;;;;;;;7.90;5.53;;;;;;;;;;6308256;28;20042;-66
2023/09/16 10:41:27;;;;;;;6.25;4.80;;;;;;;;;;6287353;28;20085;-66
2023/09/16 10:44:30;;;;;;;5.57;3.90;;;;;;;;;;6294884;28;20075;-66
2023/09/16 10:47:32;;;;;;;7.28;5.07;;;;;;;;;;6304877;28;20051;-65
2023/09/16 10:50:36;;;;;;;6.28;4.28;;;;;;;;;;6304275;28;20049;-65
2023/09/16 10:53:40;;;;;;;;;;;;;;;;;;6307204;28;20083;-65
2023/09/16 10:56:43;;;;;;;4.63;3.08;;;;;;;;;;6307927;28;19927;-65
2023/09/16 10:59:47;;;;;;;6.07;3.88;;;;;;;;;;6311024;28;20201;-66
2023/09/16 11:02:56;;;;;;;4.80;3.25;;;;;;;;;;6289108;28;20074;-65
2023/09/16 11:05:59;;;;;;;4.78;3.17;;;;;;;;;;6290823;28;20052;-65
2023/09/16 11:09:01;;;;;;;5.90;3.10;;;;;;;;;;6305246;28;20059;-65
2023/09/16 11:12:05;;;;;;;5.30;3.42;;;;;;;;;;6280542;28;20125;-65
2023/09/16 11:15:08;;;;;;;7.22;3.72;;;;;;;;;;6303497;28;20040;-65
2023/09/16 11:18:10;;;;;;;6.03;3.58;;;;;;;;;;6307037;28;20036;-65
2023/09/16 11:21:12;;;;;;;6.00;3.67;;;;;;;;;;6286447;28;20135;-65
2023/09/16 11:24:16;;;;;;;4.97;3.22;;;;;;;;;;6300399;28;20071;-65
2023/09/16 11:27:18;;;;;;;6.65;4.20;;;;;;;;;;6297711;28;20045;-65
2023/09/16 11:30:20;;;;;;;8.93;4.43;;;;;;;;;;6283893;28;20056;-65
2023/09/16 11:33:38;;;;;;;6.65;4.07;;;;;;;;;;6301286;28;20040;-65
2023/09/16 11:36:42;;;;;;;9.15;4.13;;;;;;;;;;6296343;28;20036;-65
2023/09/16 11:39:46;;;;;;;6.13;3.78;;;;;;;;;;6287299;28;20090;-64
2023/09/16 11:42:49;;;;;;;5.82;4.13;;;;;;;;;;6302509;28;20041;-65
2023/09/16 11:45:51;;;;;;;5.68;3.50;;;;;;;;;;6295740;28;20554;-65
2023/09/16 11:48:57;;;;;;;6.30;3.97;;;;;;;;;;6278706;28;20097;-65
2023/09/16 11:52:00;;;;;;;7.03;4.00;;;;;;;;;;6307536;28;20048;-64
2023/09/16 11:55:03;;;;;;;8.07;6.55;;;;;;;;;;6289705;28;20525;-64
2023/09/16 11:58:05;;;;;;;10.27;4.30;;;;;;;;;;6302481;28;20488;-65
2023/09/16 12:01:07;;;;;;;6.78;4.72;;;;;;;;;;6299152;28;20866;-64
2023/09/16 12:04:11;;;;;;;6.70;4.68;;;;;;;;;;6278332;28;20104;-65
2023/09/16 12:07:13;;;;;;;8.70;4.80;;;;;;;;;;6291054;28;20044;-64
2023/09/16 12:10:16;;;;;;;8.30;4.40;;;;;;;;;;6301818;28;20097;-63
2023/09/16 12:13:29;;;;;;;6.68;4.90;;;;;;;;;;6301638;28;20040;-64
2023/09/16 12:16:31;;;;;;;7.57;4.70;;;;;;;;;;6303654;28;20131;-64
2023/09/16 12:19:33;;;;;;;7.57;4.65;;;;;;;;;;6308984;28;20055;-63
2023/09/16 12:22:36;;;;;;;6.03;4.28;;;;;;;;;;6299567;28;20048;-64
2023/09/16 12:25:41;;;;;;;8.30;5.18;;;;;;;;;;6301140;28;20051;-64
2023/09/16 12:28:43;;;;;;;6.55;4.57;;;;;;;;;;6303682;28;20045;-64
2023/09/16 12:31:47;;;;;;;8.68;4.40;;;;;;;;;;6282126;28;20059;-64
2023/09/16 12:35:05;;;;;;;5.43;3.55;;;;;;;;;;6305542;28;20055;-64
2023/09/16 12:38:07;;;;;;;6.78;4.30;;;;;;;;;;6306528;28;20050;-64
2023/09/16 12:41:12;;;;;;;7.32;4.15;;;;;;;;;;6290174;28;20074;-64
2023/09/16 12:44:14;;;;;;;6.90;4.38;;;;;;;;;;6286096;28;20055;-64
2023/09/16 12:47:17;;;;;;;6.18;4.38;;;;;;;;;;6289989;28;20085;-65
2023/09/16 12:50:20;;;;;;;5.80;3.70;;;;;;;;;;6299973;28;20616;-64
2023/09/16 12:53:26;;;;;;;8.00;6.15;;;;;;;;;;6286730;28;20473;-65
2023/09/16 12:56:30;;;;;;;8.90;4.47;;;;;;;;;;6309870;28;20038;-64
2023/09/16 12:59:32;;;;;;;9.00;3.75;;;;;;;;;;6303223;28;20044;-65
2023/09/16 13:02:36;;;;;;;5.50;3.70;;;;;;;;;;6310922;28;20084;-65
2023/09/16 13:05:39;;;;;;;7.20;3.63;;;;;;;;;;6306188;28;20048;-64
2023/09/16 13:08:41;;;;;;;6.28;4.22;;;;;;;;;;6307226;28;20056;-64
2023/09/16 13:11:44;;;;;;;7.35;4.13;;;;;;;;;;6302618;28;20089;-64
2023/09/16 13:14:46;;;;;;;7.15;3.70;;;;;;;;;;6286623;28;20059;-66
2023/09/16 13:17:57;;;;;;;6.85;5.43;;;;;;;;;;6308513;28;20415;-65
2023/09/16 13:20:59;;;;;;;29.13;19.65;;;;;;;;;;6287245;28;20052;-65
2023/09/16 13:24:02;;;;;;;19.67;13.43;;;;;;;;;;6284705;28;20074;-65
2023/09/16 13:27:08;;;;;;;36.97;24.20;;;;;;;;;;6301942;28;20159;-66
2023/09/16 13:30:10;;;;;;;24.45;19.17;;;;;;;;;;6302327;28;20435;-65
2023/09/16 13:33:12;;;;;;;7.88;5.93;;;;;;;;;;6290021;28;20040;-66
2023/09/16 13:36:14;;;;;;;55.33;35.95;;;;;;;;;;6303987;28;20131;-66
2023/09/16 13:39:17;;;;;;;29.88;18.98;;;;;;;;;;6295751;28;20044;-66
2023/09/16 13:42:19;;;;;;;17.50;12.90;;;;;;;;;;6293687;28;20059;-66
2023/09/16 13:45:21;;;;;;;35.88;21.90;;;;;;;;;;6294820;28;20051;-66
2023/09/16 13:48:23;;;;;;;39.63;24.48;;;;;;;;;;6294520;28;20091;-66
2023/09/16 13:51:26;;;;;;;7.45;5.07;;;;;;;;;;6300550;28;20051;-67
2023/09/16 13:54:29;;;;;;;11.90;9.90;;;;;;;;;;6301745;28;20574;-66
2023/09/16 13:57:31;;;;;;;8.85;5.82;;;;;;;;;;6298563;28;20047;-66
2023/09/16 14:00:35;;;;;;;10.90;6.97;;;;;;;;;;6285564;28;20136;-66
2023/09/16 14:03:37;;;;;;;9.02;5.72;;;;;;;;;;6295817;28;20044;-65
2023/09/16 14:06:39;;;;;;;12.40;9.63;;;;;;;;;;6300080;28;20041;-65
2023/09/16 14:09:41;;;;;;;9.25;8.27;;;;;;;;;;6299220;28;20442;-66
2023/09/16 14:12:43;;;;;;;11.43;5.63;;;;;;;;;;6301368;28;20048;-66
2023/09/16 14:15:45;;;;;;;31.65;23.92;;;;;;;;;;6301048;28;20048;-65
2023/09/16 14:18:47;;;;;;;116.43;86.95;;;;;;;;;;6307271;28;20056;-66
2023/09/16 14:21:49;;;;;;;61.63;40.63;;;;;;;;;;6295476;28;20055;-66
2023/09/16 14:24:51;;;;;;;22.45;18.48;;;;;;;;;;6306285;28;20080;-66
2023/09/16 14:27:53;;;;;;;31.73;26.38;;;;;;;;;;6302551;28;20044;-65
2023/09/16 14:30:55;;;;;;;13.57;9.98;;;;;;;;;;6305566;28;20045;-65
2023/09/16 14:33:57;;;;;;;24.27;20.08;;;;;;;;;;6307559;28;20530;-65
2023/09/16 14:37:00;;;;;;;25.45;18.83;;;;;;;;;;6304615;28;20040;-65
2023/09/16 14:40:02;;;;;;;43.47;33.05;;;;;;;;;;6298527;28;20063;-65
2023/09/16 14:43:07;;;;;;;27.27;22.40;;;;;;;;;;6306359;28;20044;-65
2023/09/16 14:46:09;;;;;;;32.83;25.27;;;;;;;;;;6302564;28;20045;-66
2023/09/16 14:49:11;;;;;;;26.23;19.25;;;;;;;;;;6303781;28;20825;-65
2023/09/16 14:52:13;;;;;;;58.58;43.22;;;;;;;;;;6294319;28;20646;-65
2023/09/16 14:55:34;;;;;;;28.95;18.50;;;;;;;;;;6299654;28;20108;-66
2023/09/16 14:58:54;;;;;;;101.00;57.90;;;;;;;;;;6297843;28;20040;-65
2023/09/16 15:01:57;;;;;;;53.88;32.72;;;;;;;;;;6296829;28;20185;-65
2023/09/16 15:04:59;;;;;;;34.78;27.02;;;;;;;;;;6295092;28;20428;-67
2023/09/16 15:08:01;;;;;;;58.92;43.97;;;;;;;;;;6298288;28;20051;-65
2023/09/16 15:11:03;;;;;;;71.22;52.95;;;;;;;;;;6299039;28;20043;-67
2023/09/16 15:14:06;;;;;;;72.00;52.95;;;;;;;;;;6295723;28;20102;-67
2023/09/16 15:17:08;;;;;;;69.18;49.20;;;;;;;;;;6297679;28;20040;-66
2023/09/16 15:20:11;;;;;;;63.97;45.03;;;;;;;;;;6299125;28;20513;-66
2023/09/16 15:23:14;;;;;;;48.05;35.42;;;;;;;;;;6302144;28;20581;-66
2023/09/16 15:26:16;;;;;;;34.90;23.38;;;;;;;;;;6300152;28;20070;-66
2023/09/16 15:29:18;;;;;;;31.15;21.55;;;;;;;;;;6303415;28;20470;-66
2023/09/16 15:32:20;;;;;;;34.75;24.73;;;;;;;;;;6301968;28;20503;-67
2023/09/16 15:35:25;;;;;;;15.02;12.07;;;;;;;;;;6301569;28;20620;-67
2023/09/16 15:38:27;;;;;;;19.15;10.48;;;;;;;;;;6279657;28;20928;-67
2023/09/16 15:41:29;;;;;;;18.00;9.93;;;;;;;;;;6301450;28;20131;-67
2023/09/16 15:44:31;;;;;;;36.30;15.18;;;;;;;;;;6298180;28;20620;-67
2023/09/16 15:47:33;;;;;;;30.92;15.55;;;;;;;;;;6303594;28;20110;-67
2023/09/16 15:50:46;;;;;;;23.20;12.70;;;;;;;;;;6304002;28;20052;-67
2023/09/16 15:53:48;;;;;;;17.73;9.30;;;;;;;;;;6302827;28;20063;-67
2023/09/16 15:56:51;;;;;;;35.40;18.05;;;;;;;;;;6307987;28;20423;-67
2023/09/16 15:59:53;;;;;;;15.93;10.23;;;;;;;;;;6307173;28;20118;-66
2023/09/16 16:02:55;;;;;;;12.25;8.02;;;;;;;;;;6305427;28;20059;-66
2023/09/16 16:05:58;;;;;;;9.73;7.28;;;;;;;;;;6311626;28;20040;-67
2023/09/16 16:09:00;;;;;;;9.70;7.88;;;;;;;;;;6310797;28;20134;-66
2023/09/16 16:12:03;;;;;;;12.05;8.52;;;;;;;;;;6306436;28;20048;-66
2023/09/16 16:15:05;;;;;;;13.15;8.63;;;;;;;;;;6311597;28;20067;-67
2023/09/16 16:18:09;;;;;;;11.02;7.63;;;;;;;;;;6306147;28;20032;-67
2023/09/16 16:21:11;;;;;;;11.05;7.57;;;;;;;;;;6309727;28;20052;-66
2023/09/16 16:24:13;;;;;;;12.32;8.18;;;;;;;;;;6313326;28;20116;-67
2023/09/16 16:27:16;;;;;;;16.38;8.23;;;;;;;;;;6309594;28;20062;-67
2023/09/16 16:30:18;;;;;;;11.15;8.73;;;;;;;;;;6307677;28;20051;-66
2023/09/16 16:33:20;;;;;;;13.85;10.25;;;;;;;;;;6309752;28;20052;-66
2023/09/16 16:36:22;;;;;;;14.20;9.00;;;;;;;;;;6307166;28;20155;-66
2023/09/16 16:39:24;;;;;;;16.73;8.45;;;;;;;;;;6301776;28;20098;-66
2023/09/16 16:42:26;;;;;;;14.20;11.02;;;;;;;;;;6309837;28;20569;-66
2023/09/16 16:45:28;;;;;;;12.18;8.85;;;;;;;;;;6312054;28;20044;-67
2023/09/16 16:48:31;;;;;;;12.48;8.38;;;;;;;;;;6311793;28;20154;-65
2023/09/16 16:51:33;;;;;;;13.93;9.77;;;;;;;;;;6308101;28;20140;-64
2023/09/16 16:54:35;;;;;;;15.60;10.88;;;;;;;;;;6304541;28;20040;-67
2023/09/16 16:57:37;;;;;;;12.73;11.25;;;;;;;;;;6311905;28;20071;-65
2023/09/16 17:00:39;;;;;;;14.77;9.48;;;;;;;;;;6313658;28;20055;-65
2023/09/16 17:03:43;;;;;;;12.07;8.90;;;;;;;;;;6287752;28;20114;-65
2023/09/16 17:06:45;;;;;;;13.68;10.50;;;;;;;;;;6305816;28;20072;-66
2023/09/16 17:09:47;;;;;;;12.45;9.65;;;;;;;;;;6296069;28;20055;-66
2023/09/16 17:12:49;;;;;;;13.88;9.30;;;;;;;;;;6308880;28;20052;-65
2023/09/16 17:15:51;;;;;;;12.65;10.55;;;;;;;;;;6301007;28;20044;-66
2023/09/16 17:18:53;;;;;;;12.00;9.52;;;;;;;;;;6294347;28;20052;-66
2023/09/16 17:21:55;;;;;;;13.05;9.20;;;;;;;;;;6302337;28;20620;-66
2023/09/16 17:24:58;;;;;;;12.20;10.35;;;;;;;;;;6314104;28;20458;-65
2023/09/16 17:28:02;;;;;;;13.90;12.40;;;;;;;;;;6305259;28;20619;-67
2023/09/16 17:31:04;;;;;;;15.05;9.45;;;;;;;;;;6298979;28;20059;-65
2023/09/16 17:34:06;;;;;;;11.35;8.90;;;;;;;;;;6300438;28;20055;-66
2023/09/16 17:37:08;;;;;;;11.77;8.13;;;;;;;;;;6304957;28;20032;-66
2023/09/16 17:40:11;;;;;;;9.02;6.78;;;;;;;;;;6275344;28;20055;-66
2023/09/16 17:43:13;;;;;;;9.55;8.25;;;;;;;;;;6288834;28;20044;-66
2023/09/16 17:46:16;;;;;;;12.23;7.50;;;;;;;;;;6303773;28;20845;-65
2023/09/16 17:49:18;;;;;;;11.27;7.25;;;;;;;;;;6275940;28;20044;-66
2023/09/16 17:52:23;;;;;;;8.45;7.18;;;;;;;;;;6291379;28;20106;-66
2023/09/16 17:55:25;;;;;;;11.98;7.70;;;;;;;;;;6305037;28;20051;-66
2023/09/16 17:58:33;;;;;;;11.15;7.53;;;;;;;;;;6306260;28;20039;-66